createdAt,value
2022-12-16T00:00:17.803Z,18.80
2022-12-16T00:02:48.180Z,18.83
2022-12-16T00:05:16.831Z,18.45
2022-12-16T00:07:45.199Z,22.42
2022-12-16T00:10:14.031Z,20.05
2022-12-16T00:12:42.643Z,18.48
2022-12-16T00:15:11.597Z,18.33
2022-12-16T00:17:40.833Z,18.60
2022-12-16T00:20:12.075Z,17.98
2022-12-16T00:22:40.818Z,19.40
2022-12-16T00:25:10.436Z,16.80
2022-12-16T00:27:38.832Z,19.00
2022-12-16T00:30:08.765Z,17.98
2022-12-16T00:32:37.112Z,20.48
2022-12-16T00:35:05.863Z,18.55
2022-12-16T00:37:35.735Z,18.60
2022-12-16T00:40:04.156Z,18.48
2022-12-16T00:42:32.439Z,18.88
2022-12-16T00:45:00.910Z,16.88
2022-12-16T00:47:29.210Z,17.27
2022-12-16T00:49:57.469Z,18.10
2022-12-16T00:52:26.167Z,17.42
2022-12-16T00:54:55.919Z,16.52
2022-12-16T00:57:24.515Z,17.58
2022-12-16T00:59:53.243Z,16.38
2022-12-16T01:02:21.647Z,16.10
2022-12-16T01:04:50.163Z,17.55
2022-12-16T01:07:19.109Z,16.65
2022-12-16T01:09:47.494Z,15.80
2022-12-16T01:12:17.365Z,15.65
2022-12-16T01:14:45.795Z,14.90
2022-12-16T01:17:14.200Z,13.77
2022-12-16T01:19:42.474Z,13.13
2022-12-16T01:22:11.073Z,14.65
2022-12-16T01:24:39.307Z,13.77
2022-12-16T01:27:07.632Z,14.57
2022-12-16T01:29:38.385Z,13.77
2022-12-16T01:32:07.629Z,13.50
2022-12-16T01:34:36.643Z,14.02
2022-12-16T01:37:04.928Z,14.65
2022-12-16T01:39:33.499Z,14.10
2022-12-16T01:42:01.784Z,14.25
2022-12-16T01:44:30.114Z,14.48
2022-12-16T01:47:04.108Z,14.93
2022-12-16T01:49:39.250Z,15.02
2022-12-16T01:52:10.781Z,16.10
2022-12-16T01:54:43.874Z,15.10
2022-12-16T01:59:44.994Z,12.98
2022-12-16T02:02:15.953Z,14.15
2022-12-16T02:05:06.189Z,13.98
2022-12-16T02:07:34.554Z,15.10
2022-12-16T02:10:04.444Z,14.75
2022-12-16T02:12:43.009Z,17.70
2022-12-16T02:15:25.617Z,15.98
2022-12-16T02:18:02.538Z,13.85
2022-12-16T02:21:11.200Z,16.02
2022-12-16T02:24:07.061Z,14.25
2022-12-16T02:27:11.729Z,13.95
2022-12-16T02:30:03.208Z,14.98
2022-12-16T02:32:44.828Z,14.93
2022-12-16T02:35:19.869Z,12.90
2022-12-16T02:37:54.008Z,13.88
2022-12-16T02:40:28.853Z,14.95
2022-12-16T02:43:02.325Z,15.02
2022-12-16T02:45:33.039Z,14.60
2022-12-16T02:48:02.906Z,17.20
2022-12-16T02:50:36.871Z,15.60
2022-12-16T02:53:07.303Z,15.77
2022-12-16T02:55:49.284Z,14.50
2022-12-16T02:58:20.720Z,14.00
2022-12-16T03:00:56.172Z,15.20
2022-12-16T03:03:33.612Z,15.05
2022-12-16T03:06:03.524Z,15.82
2022-12-16T03:08:36.421Z,15.85
2022-12-16T03:11:06.882Z,14.95
2022-12-16T03:13:40.228Z,16.95
2022-12-16T03:16:11.219Z,15.18
2022-12-16T03:18:45.229Z,16.23
2022-12-16T03:21:15.223Z,16.85
2022-12-16T03:23:48.885Z,16.42
2022-12-16T03:26:22.654Z,16.30
2022-12-16T03:28:57.291Z,16.20
2022-12-16T03:31:36.986Z,18.08
2022-12-16T03:34:13.861Z,14.98
2022-12-16T03:36:45.303Z,14.73
2022-12-16T03:39:14.938Z,15.73
2022-12-16T03:41:45.365Z,16.95
2022-12-16T03:44:14.153Z,16.70
2022-12-16T03:46:43.026Z,15.32
2022-12-16T03:49:12.892Z,16.23
2022-12-16T03:51:41.333Z,17.48
2022-12-16T03:54:09.904Z,16.77
2022-12-16T03:56:38.352Z,16.38
2022-12-16T03:59:07.365Z,16.45
2022-12-16T04:01:36.000Z,16.65
2022-12-16T04:04:04.519Z,17.08
2022-12-16T04:06:34.384Z,17.35
2022-12-16T04:09:02.879Z,17.13
2022-12-16T04:11:57.297Z,17.58
2022-12-16T04:14:43.483Z,18.40
2022-12-16T04:17:31.755Z,17.20
2022-12-16T04:20:18.227Z,17.70
2022-12-16T04:23:05.636Z,17.02
2022-12-16T04:25:37.263Z,18.75
2022-12-16T04:28:05.735Z,17.67
2022-12-16T04:30:35.787Z,18.25
2022-12-16T04:33:25.521Z,19.95
2022-12-16T04:36:11.533Z,19.70
2022-12-16T04:38:59.534Z,18.23
2022-12-16T04:41:45.171Z,20.00
2022-12-16T04:44:31.564Z,18.23
2022-12-16T04:47:17.269Z,17.25
2022-12-16T04:50:03.208Z,18.73
2022-12-16T04:52:49.332Z,16.65
2022-12-16T04:55:36.986Z,17.50
2022-12-16T04:58:23.171Z,16.55
2022-12-16T05:01:10.081Z,14.93
2022-12-16T05:03:56.103Z,14.50
2022-12-16T05:06:42.554Z,16.90
2022-12-16T05:09:28.117Z,16.05
2022-12-16T05:12:15.156Z,16.67
2022-12-16T05:15:01.133Z,17.05
2022-12-16T05:17:47.263Z,15.43
2022-12-16T05:20:33.358Z,16.10
2022-12-16T05:23:15.763Z,17.35
2022-12-16T05:26:01.692Z,17.90
2022-12-16T05:28:49.150Z,15.52
2022-12-16T05:31:35.399Z,14.48
2022-12-16T05:34:21.347Z,14.25
2022-12-16T05:37:07.246Z,14.52
2022-12-16T05:40:05.231Z,15.57
2022-12-16T05:42:51.347Z,14.95
2022-12-16T05:45:38.983Z,13.90
2022-12-16T05:48:27.198Z,15.02
2022-12-16T05:51:13.480Z,15.60
2022-12-16T05:53:59.265Z,13.63
2022-12-16T05:56:45.210Z,13.88
2022-12-16T05:59:31.381Z,16.02
2022-12-16T06:02:19.243Z,15.23
2022-12-16T06:05:05.282Z,15.20
2022-12-16T06:07:51.326Z,14.40
2022-12-16T06:10:37.109Z,14.65
2022-12-16T06:13:22.901Z,14.65
2022-12-16T06:16:09.412Z,14.43
2022-12-16T06:18:56.890Z,13.82
2022-12-16T06:21:43.788Z,13.45
2022-12-16T06:24:30.080Z,14.38
2022-12-16T06:27:15.695Z,13.60
2022-12-16T06:30:02.079Z,13.85
2022-12-16T06:32:47.701Z,13.18
2022-12-16T06:35:35.186Z,13.77
2022-12-16T06:38:20.827Z,13.10
2022-12-16T06:41:07.150Z,14.25
2022-12-16T06:43:49.469Z,14.30
2022-12-16T06:46:35.528Z,14.02
2022-12-16T06:49:23.734Z,14.27
2022-12-16T06:52:11.172Z,13.25
2022-12-16T06:54:57.261Z,13.77
2022-12-16T06:57:43.533Z,14.75
2022-12-16T07:00:30.677Z,15.35
2022-12-16T07:03:16.641Z,19.67
2022-12-16T07:06:02.739Z,13.65
2022-12-16T07:08:50.491Z,15.07
2022-12-16T07:11:36.125Z,13.32
2022-12-16T07:14:23.008Z,13.60
2022-12-16T07:17:12.398Z,12.65
2022-12-16T07:20:02.698Z,12.45
2022-12-16T07:22:51.202Z,11.95
2022-12-16T07:25:46.177Z,10.60
2022-12-16T07:28:31.945Z,10.55
2022-12-16T07:31:17.695Z,9.55
2022-12-16T07:34:04.040Z,10.07
2022-12-16T07:36:46.450Z,11.73
2022-12-16T07:39:32.468Z,10.55
2022-12-16T07:42:19.550Z,11.52
2022-12-16T07:45:05.321Z,10.50
2022-12-16T07:47:51.488Z,10.95
2022-12-16T07:50:41.464Z,12.23
2022-12-16T07:53:31.379Z,11.55
2022-12-16T07:56:17.278Z,12.60
2022-12-16T07:59:04.749Z,12.18
2022-12-16T08:01:50.631Z,11.98
2022-12-16T08:04:36.829Z,10.98
2022-12-16T08:07:23.000Z,11.55
2022-12-16T08:10:08.847Z,11.80
2022-12-16T08:12:55.010Z,11.95
2022-12-16T08:15:42.789Z,13.30
2022-12-16T08:18:28.804Z,14.20
2022-12-16T08:21:15.034Z,12.48
2022-12-16T08:24:01.139Z,12.13
2022-12-16T08:26:47.279Z,11.32
2022-12-16T08:29:44.930Z,11.25
2022-12-16T08:32:33.470Z,10.95
2022-12-16T08:35:20.114Z,9.38
2022-12-16T08:38:12.218Z,11.32
2022-12-16T08:41:04.269Z,10.55
2022-12-16T08:43:51.739Z,11.20
2022-12-16T08:46:37.819Z,10.52
2022-12-16T08:49:25.635Z,10.52
2022-12-16T08:52:11.804Z,12.80
2022-12-16T08:54:57.925Z,11.13
2022-12-16T08:57:44.206Z,13.25
2022-12-16T09:00:31.185Z,11.25
2022-12-16T09:03:17.931Z,13.35
2022-12-16T09:06:05.979Z,12.30
2022-12-16T09:08:51.876Z,12.57
2022-12-16T09:11:35.149Z,12.77
2022-12-16T09:14:21.683Z,13.85
2022-12-16T09:17:07.643Z,11.98
2022-12-16T09:19:55.352Z,11.32
2022-12-16T09:22:43.884Z,11.65
2022-12-16T09:25:35.259Z,10.85
2022-12-16T09:28:21.543Z,11.07
2022-12-16T09:31:07.384Z,11.30
2022-12-16T09:33:54.399Z,11.48
2022-12-16T09:36:42.239Z,10.40
2022-12-16T09:39:29.810Z,11.40
2022-12-16T09:42:25.040Z,11.02
2022-12-16T09:45:20.613Z,11.55
2022-12-16T09:48:13.291Z,11.30
2022-12-16T09:51:02.717Z,11.15
2022-12-16T09:53:54.550Z,11.23
2022-12-16T09:56:48.804Z,11.63
2022-12-16T09:59:40.115Z,12.45
2022-12-16T10:02:30.883Z,12.10
2022-12-16T10:05:28.815Z,12.68
2022-12-16T10:08:24.051Z,12.90
2022-12-16T10:11:19.263Z,12.05
2022-12-16T10:14:19.256Z,12.05
2022-12-16T10:17:14.479Z,12.25
2022-12-16T10:20:09.622Z,11.10
2022-12-16T10:23:06.475Z,10.55
2022-12-16T10:25:59.681Z,12.75
2022-12-16T10:29:03.582Z,17.40
2022-12-16T10:31:52.087Z,12.35
2022-12-16T10:34:45.240Z,12.60
2022-12-16T10:37:35.413Z,11.30
2022-12-16T10:40:23.128Z,11.00
2022-12-16T10:43:22.176Z,11.80
2022-12-16T10:46:12.606Z,11.82
2022-12-16T10:49:00.195Z,11.82
2022-12-16T10:51:56.422Z,11.65
2022-12-16T10:54:50.967Z,12.43
2022-12-16T10:57:51.998Z,11.25
2022-12-16T11:00:56.462Z,74.88
2022-12-16T11:03:45.605Z,11.52
2022-12-16T11:06:40.316Z,14.00
2022-12-16T11:09:46.759Z,10.82
2022-12-16T11:12:40.691Z,11.90
2022-12-16T11:15:48.166Z,13.20
2022-12-16T11:18:36.596Z,14.82
2022-12-16T11:21:31.353Z,12.68
2022-12-16T11:24:32.923Z,13.57
2022-12-16T11:27:22.502Z,12.50
2022-12-16T11:30:11.395Z,15.00
2022-12-16T11:33:01.805Z,15.55
2022-12-16T11:35:51.944Z,14.25
2022-12-16T11:38:46.217Z,15.65
2022-12-16T11:41:47.702Z,14.95
2022-12-16T11:44:43.989Z,14.73
2022-12-16T11:47:38.698Z,14.35
2022-12-16T11:50:30.128Z,13.55
2022-12-16T11:53:18.080Z,13.73
2022-12-16T11:56:14.146Z,14.93
2022-12-16T11:59:02.891Z,13.07
2022-12-16T12:01:55.497Z,14.40
2022-12-16T12:04:42.463Z,11.45
2022-12-16T12:07:45.800Z,13.88
2022-12-16T12:10:53.128Z,13.43
2022-12-16T12:13:54.772Z,12.55
2022-12-16T12:16:53.637Z,12.75
2022-12-16T12:19:48.202Z,11.88
2022-12-16T12:22:45.274Z,10.52
2022-12-16T12:28:28.563Z,9.30
2022-12-16T12:31:20.789Z,10.77
2022-12-16T12:34:19.690Z,9.38
2022-12-16T12:37:18.587Z,10.32
2022-12-16T12:40:08.405Z,9.25
2022-12-16T12:43:03.456Z,10.88
2022-12-16T12:46:10.758Z,10.15
2022-12-16T12:49:04.320Z,9.25
2022-12-16T12:52:00.977Z,8.43
2022-12-16T12:54:55.398Z,8.77
2022-12-16T12:57:45.111Z,9.60
2022-12-16T13:00:37.487Z,8.45
2022-12-16T13:03:30.669Z,9.15
2022-12-16T13:06:20.623Z,8.70
2022-12-16T13:09:18.472Z,8.30
2022-12-16T13:12:42.581Z,7.40
2022-12-16T13:15:36.179Z,7.35
2022-12-16T13:18:39.600Z,6.43
2022-12-16T13:21:59.511Z,7.03
2022-12-16T13:24:59.066Z,6.25
2022-12-16T13:27:47.089Z,6.75
2022-12-16T13:30:42.813Z,7.60
2022-12-16T13:33:44.896Z,10.68
2022-12-16T13:36:33.102Z,14.10
2022-12-16T13:39:44.840Z,7.28
2022-12-16T13:43:06.888Z,7.47
2022-12-16T13:45:58.141Z,10.40
2022-12-16T13:48:57.062Z,6.65
2022-12-16T13:52:26.749Z,8.43
2022-12-16T13:55:30.261Z,8.38
2022-12-16T13:58:22.995Z,7.63
2022-12-16T14:01:25.602Z,6.95
2022-12-16T14:04:12.670Z,9.57
2022-12-16T14:06:59.614Z,8.57
2022-12-16T14:09:54.210Z,7.28
2022-12-16T14:13:14.623Z,7.43
2022-12-16T14:16:12.873Z,8.52
2022-12-16T14:19:10.377Z,7.25
2022-12-16T14:22:01.796Z,7.55
2022-12-16T14:24:48.911Z,7.20
2022-12-16T14:27:37.856Z,8.20
2022-12-16T14:30:35.604Z,8.25
2022-12-16T14:33:35.212Z,7.93
2022-12-16T14:36:35.939Z,10.32
2022-12-16T14:39:23.080Z,8.50
2022-12-16T14:42:10.324Z,7.50
2022-12-16T14:44:56.921Z,8.45
2022-12-16T14:47:45.141Z,8.30
2022-12-16T14:50:38.766Z,7.43
2022-12-16T14:53:41.300Z,7.60
2022-12-16T14:56:38.257Z,7.82
2022-12-16T14:59:31.617Z,8.93
2022-12-16T15:02:29.401Z,7.22
2022-12-16T15:05:17.149Z,7.78
2022-12-16T15:08:06.110Z,7.88
2022-12-16T15:10:54.024Z,8.27
2022-12-16T15:13:40.591Z,8.05
2022-12-16T15:16:34.056Z,7.82
2022-12-16T15:19:21.361Z,7.45
2022-12-16T15:22:07.217Z,8.60
2022-12-16T15:24:56.950Z,7.70
2022-12-16T15:27:46.160Z,8.13
2022-12-16T15:30:53.344Z,7.65
2022-12-16T15:33:45.468Z,7.57
2022-12-16T15:36:47.457Z,8.30
2022-12-16T15:39:41.758Z,7.72
2022-12-16T15:42:38.760Z,8.25
2022-12-16T15:45:37.294Z,8.55
2022-12-16T15:48:31.387Z,8.20
2022-12-16T15:51:17.328Z,8.48
2022-12-16T15:54:03.939Z,8.02
2022-12-16T15:57:01.937Z,7.85
2022-12-16T15:59:50.337Z,10.07
2022-12-16T16:02:40.255Z,7.38
2022-12-16T16:05:35.007Z,9.88
2022-12-16T16:08:20.813Z,9.25
2022-12-16T16:11:07.139Z,8.57
2022-12-16T16:13:53.205Z,8.35
2022-12-16T16:16:39.796Z,7.57
2022-12-16T16:19:35.014Z,8.57
2022-12-16T16:22:21.167Z,8.05
2022-12-16T16:25:07.006Z,8.23
2022-12-16T16:27:52.900Z,8.93
2022-12-16T16:30:38.734Z,9.85
2022-12-16T16:33:25.165Z,9.15
2022-12-16T16:36:12.352Z,9.43
2022-12-16T16:38:58.438Z,9.10
2022-12-16T16:41:44.527Z,10.68
2022-12-16T16:44:30.495Z,10.68
2022-12-16T16:47:16.672Z,9.50
2022-12-16T16:50:04.737Z,10.93
2022-12-16T16:52:51.831Z,12.23
2022-12-16T16:55:39.405Z,9.88
2022-12-16T16:58:34.825Z,17.48
2022-12-16T17:01:20.961Z,11.00
2022-12-16T17:04:07.125Z,9.25
2022-12-16T17:06:53.098Z,9.45
2022-12-16T17:09:40.091Z,10.27
2022-12-16T17:12:36.607Z,9.13
2022-12-16T17:15:35.622Z,10.38
2022-12-16T17:18:22.189Z,10.20
2022-12-16T17:21:09.331Z,11.95
2022-12-16T17:23:55.762Z,11.80
2022-12-16T17:26:43.457Z,12.30
2022-12-16T17:29:36.690Z,11.13
2022-12-16T17:32:23.088Z,12.43
2022-12-16T17:35:09.275Z,12.30
2022-12-16T17:37:55.547Z,14.30
2022-12-16T17:40:41.735Z,12.85
2022-12-16T17:43:28.991Z,14.48
2022-12-16T17:46:16.899Z,15.30
2022-12-16T17:49:02.877Z,18.83
2022-12-16T17:51:49.422Z,18.98
2022-12-16T17:54:35.134Z,14.82
2022-12-16T17:57:21.396Z,17.02
2022-12-16T18:00:08.441Z,16.13
2022-12-16T18:05:45.128Z,15.63
2022-12-16T18:08:31.391Z,15.23
2022-12-16T18:11:17.886Z,16.60
2022-12-16T18:14:03.758Z,15.63
2022-12-16T18:17:02.619Z,16.80
2022-12-16T18:19:48.699Z,18.60
2022-12-16T18:22:35.050Z,19.00
2022-12-16T18:25:26.548Z,19.98
2022-12-16T18:28:12.396Z,25.38
2022-12-16T18:30:58.696Z,28.75
2022-12-16T18:33:51.602Z,30.38
2022-12-16T18:36:46.380Z,25.48
2022-12-16T18:39:32.437Z,26.40
2022-12-16T18:42:18.787Z,20.48
2022-12-16T18:45:07.542Z,23.55
2022-12-16T18:47:53.722Z,23.63
2022-12-16T18:50:40.894Z,27.38
2022-12-16T18:53:26.997Z,25.27
2022-12-16T18:56:19.954Z,24.05
2022-12-16T18:59:05.992Z,25.50
2022-12-16T19:01:51.926Z,24.52
2022-12-16T19:04:38.273Z,27.40
2022-12-16T19:07:34.569Z,23.60
2022-12-16T19:10:20.920Z,27.02
2022-12-16T19:13:06.690Z,26.48
2022-12-16T19:15:53.080Z,27.80
2022-12-16T19:18:39.361Z,26.73
2022-12-16T19:21:25.375Z,32.38
2022-12-16T19:24:17.617Z,29.23
2022-12-16T19:27:04.214Z,27.80
2022-12-16T19:29:49.839Z,27.98
2022-12-16T19:32:36.054Z,30.50
2022-12-16T19:35:22.280Z,29.38
2022-12-16T19:38:09.289Z,33.00
2022-12-16T19:40:57.276Z,31.38
2022-12-16T19:43:43.597Z,35.15
2022-12-16T19:46:29.688Z,35.72
2022-12-16T19:49:15.828Z,35.92
2022-12-16T19:52:02.063Z,36.25
2022-12-16T19:54:48.439Z,38.25
2022-12-16T19:57:35.661Z,36.58
2022-12-16T20:00:23.144Z,36.85
2022-12-16T20:03:09.549Z,35.28
2022-12-16T20:05:56.108Z,35.75
2022-12-16T20:08:50.750Z,35.03
2022-12-16T20:11:57.572Z,33.58
2022-12-16T20:15:04.568Z,38.15
2022-12-16T20:18:04.432Z,36.88
2022-12-16T20:21:10.607Z,35.40
2022-12-16T20:24:10.478Z,42.10
2022-12-16T20:27:16.531Z,40.30
2022-12-16T20:30:17.495Z,43.13
2022-12-16T20:33:24.001Z,41.78
2022-12-16T20:36:23.244Z,43.70
2022-12-16T20:39:33.074Z,42.45
2022-12-16T20:42:38.725Z,38.60
2022-12-16T20:45:46.329Z,38.55
2022-12-16T20:48:45.583Z,36.80
2022-12-16T20:51:45.250Z,39.92
2022-12-16T20:54:51.797Z,40.35
2022-12-16T20:57:51.362Z,39.10
2022-12-16T21:01:08.602Z,40.13
2022-12-16T21:04:15.598Z,39.80
2022-12-16T21:07:17.359Z,42.17
2022-12-16T21:10:24.169Z,40.45
2022-12-16T21:13:31.175Z,44.10
2022-12-16T21:16:38.605Z,42.70
2022-12-16T21:19:38.386Z,43.22
2022-12-16T21:22:44.607Z,46.83
2022-12-16T21:25:44.314Z,41.33
2022-12-16T21:28:50.625Z,41.15
2022-12-16T21:31:58.638Z,38.45
2022-12-16T21:35:04.576Z,39.78
2022-12-16T21:38:03.583Z,40.60
2022-12-16T21:41:08.984Z,44.83
2022-12-16T21:44:15.592Z,39.63
2022-12-16T21:47:16.189Z,44.47
2022-12-16T21:50:21.564Z,42.58
2022-12-16T21:53:20.972Z,37.95
2022-12-16T21:56:27.559Z,36.80
2022-12-16T21:59:33.657Z,40.90
2022-12-16T22:02:47.664Z,39.38
2022-12-16T22:05:54.611Z,37.38
2022-12-16T22:08:56.246Z,38.25
2022-12-16T22:12:01.641Z,39.90
2022-12-16T22:15:01.156Z,39.13
2022-12-16T22:18:08.716Z,43.38
2022-12-16T22:21:09.539Z,40.22
2022-12-16T22:24:16.614Z,36.97
2022-12-16T22:27:22.993Z,40.45
2022-12-16T22:30:22.796Z,37.10
2022-12-16T22:33:29.613Z,35.67
2022-12-16T22:36:31.733Z,35.30
2022-12-16T22:42:57.144Z,34.50
2022-12-16T22:46:03.644Z,32.90
2022-12-16T22:49:11.595Z,30.60
2022-12-16T22:52:11.521Z,33.92
2022-12-16T22:55:26.736Z,32.97
2022-12-16T22:58:33.402Z,30.95
2022-12-16T23:01:39.629Z,30.90
2022-12-16T23:04:40.351Z,31.60
2022-12-16T23:07:46.597Z,34.15
2022-12-16T23:10:52.596Z,33.50
2022-12-16T23:13:56.011Z,29.17
2022-12-16T23:17:02.627Z,26.75
2022-12-16T23:20:04.677Z,26.15
2022-12-16T23:23:16.583Z,26.92
2022-12-16T23:26:16.866Z,24.60
2022-12-16T23:29:24.120Z,23.95
2022-12-16T23:32:29.899Z,24.60
2022-12-16T23:35:32.403Z,22.67
2022-12-16T23:38:38.583Z,26.67
2022-12-16T23:41:38.614Z,23.58
2022-12-16T23:44:44.647Z,24.20
2022-12-16T23:47:44.370Z,23.73
2022-12-16T23:50:51.628Z,24.00
2022-12-16T23:53:51.693Z,23.13
2022-12-16T23:56:57.625Z,25.77
